Atmore, AL (36503)

3:10 AM CDT on September 16, 2014 (GMT -0500)
B.E.C. | Change Station
CLOSE
Current Station
Personal Weather Station
Location: Atmore, AL
Elevation: 272 ft
Nearby Weather Stations

Elev 272 ft 31.07 °N, 87.37 °W | Updated 2 minutes ago

Partly Cloudy
Partly Cloudy
74.2 °F
Feels Like 70 °F
N
0.0
Wind Variable Wind from WNW
Gusts 0.0 mph

Today
High -- | Low -- °F
--% Chance of Precip.
Yesterday
High -- | Low -- °F
Precip. -- in
6:34 AM 6:54 PM
Waning Gibbous, 48% visible
Pressure 30.01 in
Visibility 6.0 miles
Clouds Clear
Heat Index 70 °F
Dew Point 74 °F
Humidity 99%
Rainfall 0.00 in
Snow Depth Not available.
UV 0 out of 12
Pollen 8.30 out of 12
Air Quality Not available.
Flu Activity Not available.
METAR KNSE 160756Z AUTO 00000KT 6SM BR CLR 23/22 A3006 RMK AO2 SLP162 T02330217 PWINO $

More Conditions Fewer Conditions

Pressure 30.01 in
Visibility 6.0 miles
Clouds Clear
Heat Index 70 °F
Dew Point 74 °F
Humidity 99%
Rainfall 0.00 in
Snow Depth Not available.
UV 0 out of 12
Pollen 8.30 out of 12
Air Quality Not available.
Flu Activity Not available.
METAR KNSE 160756Z AUTO 00000KT 6SM BR CLR 23/22 A3006 RMK AO2 SLP162 T02330217 PWINO $

More Conditions Fewer Conditions

10-Day Weather Forecast

Almanac

Astronomy

Sep. 16, 2014 Rise Set
Actual Time 6:34 AM CDT 6:54 PM CDT
Civil Twilight 6:10 AM CDT 7:18 PM CDT
Nautical Twilight 5:42 AM CDT 7:46 PM CDT
Astronomical Twilight 5:13 AM CDT 8:15 PM CDT
Moon 12:00 AM CDT 2:01 PM CDT
Length of Visible Light 13h 07m
Length of Day
12h 19m
Tomorrow will be 1m 53s shorter.
Waning Gibbous, 48% of the Moon is Illuminated
Today
Waning Gibbous
Sep 24
New
Oct 1
First Quarter
Oct 8
Full
Oct 15
Last Quarter

Today's Extremes

State Highs State Lows

Community

WunderPhotos

Upload Photos

1,753,712 photos uploaded!

Nearby

Snow Depth

Station Depth Elevation
No new snow has been reported.

Earthquake Activity

City Distance Mag. Time & Date
No recent earthquake activity has been reported nearby.
Minimum magnitude displayed is 2.5.

Coastal Water Temperatures

Place Temperature
Mobile State Docks, AL 87.1 °F
Coast Guard Sector Mobile, AL 88.0 °F

Nearby Weather Stations